»·PEaware :: N575CB KLAX-KSNA

N575CB :: KLAX-KSNA

FLIGHT INFORMATION

Flight Status: Arrived
Operator: Privately registered:
United States
More flights under this callsign
Pilot: Sjoerd Jan T. (24821)
Aircraft: CESSNA 172 SKYHAWK
(C172)
More flights by this aircraft type
Origin: KLAX Los Angeles Intl
United States
Destination: KSNA John Wayne-Orange Co
United States
More flights between these airports :: More routes between these airports
Route: SLI8 SLI
File this flight plan on PilotEdge
Remarks: TEC route LAXP55
Altitude:
(Current/Filed)
4,000ft
Speed:
(Current/Filed)
110kts
Departed: 13-Jan-21 10:03 PM
Arrived: 13-Jan-21 11:18 PM
Distance/Time
Traveled:
31nm/1:15
Distance/Time
To Go:
Arrived

Flight Plot

Page will automatically refresh every two minutes.

Flight plan parsing failed; only flown route is shown


Map Options




Map Legend


Flown Route
Filed Route
Departure Airport
Arrival Airport
Navaid (VOR, NDB)
Fix

Horizontal Profiles

Position Reports

Time Latitude Longitude Heading Altitude Ground
Speed
13-Jan-21 21:37 33.933710 -118.398752 171 114ft 0kts
13-Jan-21 21:38 33.933710 -118.398752 171 114ft 0kts
13-Jan-21 21:39 33.933710 -118.398752 171 114ft 0kts
13-Jan-21 21:40 33.933710 -118.398752 171 114ft 0kts
13-Jan-21 21:41 33.933710 -118.398752 171 114ft 0kts
13-Jan-21 21:42 33.933710 -118.398752 171 114ft 0kts
13-Jan-21 21:43 33.933710 -118.398752 171 114ft 0kts
13-Jan-21 21:44 33.933710 -118.398752 171 114ft 0kts
13-Jan-21 21:45 33.933710 -118.398752 171 114ft 0kts
13-Jan-21 21:46 33.933710 -118.398752 171 114ft 0kts
13-Jan-21 21:47 33.933710 -118.398752 171 114ft 0kts
13-Jan-21 21:48 33.933710 -118.398752 171 114ft 0kts
13-Jan-21 21:49 33.933710 -118.398752 171 114ft 0kts
13-Jan-21 21:50 33.933710 -118.398752 171 114ft 0kts
13-Jan-21 21:51 33.933710 -118.398752 171 114ft 0kts
13-Jan-21 21:52 33.933710 -118.398752 171 114ft 0kts
13-Jan-21 21:53 33.933710 -118.398752 171 114ft 0kts
13-Jan-21 21:54 33.933710 -118.398752 171 114ft 0kts
13-Jan-21 21:55 33.933674 -118.398324 39 114ft 7kts
13-Jan-21 21:56 33.934817 -118.395627 84 109ft 20kts
13-Jan-21 21:57 33.935544 -118.388485 83 103ft 25kts
13-Jan-21 21:58 33.936500 -118.382753 358 100ft 0kts
13-Jan-21 21:59 33.936500 -118.382753 358 100ft 0kts
13-Jan-21 22:00 33.936500 -118.382753 358 100ft 0kts
13-Jan-21 22:01 33.936952 -118.382823 344 100ft 9kts
13-Jan-21 22:02 33.935690 -118.401147 262 349ft 88kts
13-Jan-21 22:03 33.932832 -118.430422 261 1050ft 88kts
13-Jan-21 22:04 33.920437 -118.453561 210 1698ft 89kts
13-Jan-21 22:05 33.899544 -118.470038 210 2316ft 90kts
13-Jan-21 22:06 33.878403 -118.486680 210 2820ft 98kts
13-Jan-21 22:07 33.852684 -118.506596 212 2781ft 114kts
13-Jan-21 22:08 33.828658 -118.524356 190 2778ft 94kts
13-Jan-21 22:09 33.809674 -118.511452 141 2778ft 87kts
13-Jan-21 22:27 33.933710 -118.398752 171 114ft 0kts
13-Jan-21 22:28 33.933710 -118.398752 171 114ft 0kts
13-Jan-21 22:29 33.933710 -118.398752 171 114ft 0kts
13-Jan-21 22:30 33.933710 -118.398752 171 114ft 0kts
13-Jan-21 22:31 33.933710 -118.398752 171 114ft 0kts
13-Jan-21 22:32 33.933710 -118.398752 171 114ft 0kts
13-Jan-21 22:33 33.935108 -118.393181 82 106ft 66kts
13-Jan-21 22:34 33.936268 -118.382812 17 100ft 6kts
13-Jan-21 22:35 33.935365 -118.401951 251 381ft 88kts
13-Jan-21 22:36 33.929004 -118.432010 261 750ft 116kts
13-Jan-21 22:37 33.910798 -118.455498 209 1460ft 85kts
13-Jan-21 22:38 33.890472 -118.471517 210 2097ft 88kts
13-Jan-21 22:39 33.870634 -118.487227 210 2775ft 82kts
13-Jan-21 22:40 33.852416 -118.501797 210 3398ft 79kts
13-Jan-21 22:41 33.831968 -118.506127 142 3791ft 99kts
13-Jan-21 22:42 33.806556 -118.482871 141 3780ft 121kts
13-Jan-21 22:43 33.779590 -118.457921 141 3779ft 123kts
13-Jan-21 22:44 33.755957 -118.436024 140 3780ft 123kts
13-Jan-21 22:45 33.731506 -118.413401 141 3779ft 116kts
13-Jan-21 22:46 33.709653 -118.386873 85 3788ft 115kts
13-Jan-21 22:47 33.721338 -118.349228 72 3779ft 122kts
13-Jan-21 22:48 33.730021 -118.309501 74 3788ft 123kts
13-Jan-21 22:49 33.738445 -118.269636 74 3788ft 123kts
13-Jan-21 22:50 33.746900 -118.229526 74 3788ft 123kts
13-Jan-21 22:51 33.755324 -118.189495 74 3788ft 123kts
13-Jan-21 22:52 33.763703 -118.149605 74 3788ft 123kts
13-Jan-21 22:53 33.771979 -118.110145 74 3788ft 123kts
13-Jan-21 22:54 33.780165 -118.071043 74 3788ft 123kts
13-Jan-21 22:56 33.792364 -118.033126 63 3788ft 123kts
13-Jan-21 22:57 33.807087 -117.996442 62 3788ft 123kts
13-Jan-21 22:58 33.821964 -117.959458 62 3788ft 123kts
13-Jan-21 22:59 33.836912 -117.922263 62 3788ft 123kts
13-Jan-21 23:00 33.851814 -117.885142 62 3788ft 123kts
13-Jan-21 23:01 33.866777 -117.847826 62 3788ft 123kts
13-Jan-21 23:02 33.881660 -117.810668 62 3788ft 123kts
13-Jan-21 23:03 33.895899 -117.774905 62 3787ft 110kts
13-Jan-21 23:04 33.909174 -117.741811 62 3788ft 110kts
13-Jan-21 23:05 33.928209 -117.714958 26 3790ft 109kts
13-Jan-21 23:06 33.955479 -117.706515 311 3797ft 108kts
13-Jan-21 23:07 33.939936 -117.723377 166 3792ft 109kts
13-Jan-21 23:08 33.910191 -117.717102 200 3779ft 110kts
13-Jan-21 23:09 33.883787 -117.735338 207 3789ft 109kts
13-Jan-21 23:10 33.856959 -117.753066 206 3785ft 110kts
13-Jan-21 23:11 33.830610 -117.770257 206 3382ft 112kts
13-Jan-21 23:12 33.804015 -117.788200 205 2791ft 108kts
13-Jan-21 23:12 33.781751 -117.800960 207 2350ft 107kts
13-Jan-21 23:14 33.750864 -117.821175 210 1646ft 107kts
13-Jan-21 23:14 33.728659 -117.835248 205 1143ft 108kts
13-Jan-21 23:16 33.697537 -117.855052 209 458ft 108kts
13-Jan-21 23:16 33.677341 -117.867821 207 60ft 68kts
13-Jan-21 23:17 33.674077 -117.870472 298 60ft 9kts
13-Jan-21 23:18 33.674393 -117.871998 205 60ft 0kts

Navigation Log

Ident Type
Flight plan parsing failed, navigation log unavailable